createdAt,value
2018-06-08T05:02:41.892Z,76.98
2018-06-08T05:07:45.951Z,77.12
2018-06-08T05:12:49.250Z,77.38
2018-06-08T05:17:52.543Z,76.69
2018-06-08T05:22:55.830Z,77.01
2018-06-08T05:27:59.131Z,77.28
2018-06-08T05:33:02.419Z,76.83
2018-06-08T05:38:05.703Z,76.55
2018-06-08T05:43:09.766Z,76.90
2018-06-08T05:54:16.165Z,76.06
2018-06-08T05:59:20.212Z,75.72
2018-06-08T06:04:23.499Z,75.90
2018-06-08T06:09:27.555Z,76.16
2018-06-08T06:14:30.840Z,76.29
2018-06-08T06:19:34.139Z,76.17
2018-06-08T06:24:38.182Z,75.99
2018-06-08T06:29:41.489Z,75.74
2018-06-08T06:34:44.779Z,75.63
2018-06-08T06:39:57.731Z,75.28
2018-06-08T06:45:01.785Z,75.07
2018-06-08T06:50:06.127Z,74.93
2018-06-08T06:55:09.423Z,74.72
2018-06-08T07:00:26.558Z,74.11
2018-06-08T07:05:29.839Z,73.39
2018-06-08T07:10:39.826Z,71.97
2018-06-08T07:15:43.887Z,71.83
2018-06-08T07:20:47.180Z,71.33
2018-06-08T07:25:50.469Z,71.29
2018-06-08T07:30:54.536Z,71.12
2018-06-08T07:35:57.830Z,70.16
2018-06-08T07:41:01.897Z,69.85
2018-06-08T07:46:05.188Z,70.98
2018-06-08T07:51:08.481Z,70.51
2018-06-08T07:56:12.535Z,69.16
2018-06-08T08:01:15.961Z,70.21
2018-06-08T08:06:19.984Z,69.32
2018-06-08T08:11:23.273Z,69.05
2018-06-08T08:16:26.564Z,68.53
2018-06-08T08:21:30.624Z,66.66
2018-06-08T08:26:33.926Z,66.70
2018-06-08T08:31:37.207Z,68.52
2018-06-08T08:36:41.272Z,67.85
2018-06-08T08:41:44.572Z,66.06
2018-06-08T08:46:48.636Z,66.76
2018-06-08T08:51:51.940Z,66.10
2018-06-08T08:56:55.281Z,65.23
2018-06-08T09:01:58.519Z,65.35
2018-06-08T09:07:02.579Z,64.83
2018-06-08T09:12:05.883Z,64.73
2018-06-08T09:17:09.176Z,64.75
2018-06-08T09:22:13.383Z,64.13
2018-06-08T09:27:16.668Z,63.49
2018-06-08T09:32:19.964Z,62.66
2018-06-08T09:37:23.239Z,62.14
2018-06-08T09:42:26.784Z,62.06
2018-06-08T09:47:30.068Z,61.66
2018-06-08T09:52:34.118Z,60.97
2018-06-08T09:57:37.413Z,60.66
2018-06-08T10:02:40.704Z,59.83
2018-06-08T10:07:43.988Z,60.17
2018-06-08T10:12:47.271Z,59.82
2018-06-08T10:17:51.164Z,59.39
2018-06-08T10:22:54.442Z,58.95
2018-06-08T10:27:57.724Z,58.18
2018-06-08T10:33:01.015Z,57.41
2018-06-08T10:38:05.070Z,56.74
2018-06-08T10:43:08.368Z,55.49
2018-06-08T10:48:11.676Z,55.53
2018-06-08T10:53:14.956Z,55.62
2018-06-08T10:58:18.232Z,54.68
2018-06-08T11:03:21.547Z,53.56
2018-06-08T11:08:24.817Z,53.33
2018-06-08T11:13:28.871Z,53.44
2018-06-08T11:18:32.151Z,53.37
2018-06-08T11:23:35.439Z,52.89
2018-06-08T11:28:38.719Z,52.36
2018-06-08T11:33:42.010Z,51.51
2018-06-08T11:38:45.290Z,51.25
2018-06-08T11:43:48.579Z,50.98
2018-06-08T11:48:51.870Z,50.52
2018-06-08T11:53:55.142Z,50.25
2018-06-08T11:58:58.435Z,48.82
2018-06-08T12:04:02.484Z,47.62
2018-06-08T12:09:05.812Z,45.99
2018-06-08T12:14:09.051Z,46.49
2018-06-08T12:19:12.347Z,45.35
2018-06-08T12:24:15.634Z,45.39
2018-06-08T12:29:18.922Z,43.94
2018-06-08T12:34:22.223Z,43.12
2018-06-08T12:39:25.523Z,42.67
2018-06-08T12:44:28.816Z,42.64
2018-06-08T12:49:32.478Z,42.68
2018-06-08T12:54:36.648Z,41.93
2018-06-08T12:59:39.949Z,41.43
2018-06-08T13:04:43.252Z,40.86
2018-06-08T13:09:46.598Z,40.97
2018-06-08T13:14:49.819Z,39.42
2018-06-08T13:19:53.126Z,40.84
2018-06-08T13:24:56.427Z,40.48
2018-06-08T13:29:59.705Z,41.03
2018-06-08T13:35:03.760Z,39.67
2018-06-08T13:40:07.048Z,38.55
2018-06-08T13:45:11.136Z,37.79
2018-06-08T13:50:14.383Z,36.33
2018-06-08T13:55:17.676Z,36.61
2018-06-08T14:00:21.073Z,36.62
2018-06-08T14:05:24.357Z,36.94
2018-06-08T14:10:27.652Z,36.69
2018-06-08T14:15:30.942Z,37.03
2018-06-08T14:20:34.228Z,36.65
2018-06-08T14:25:37.510Z,35.92
2018-06-08T14:30:40.787Z,35.58
2018-06-08T14:35:44.097Z,35.14
2018-06-08T14:40:47.376Z,34.08
2018-06-08T14:45:50.771Z,33.28
2018-06-08T14:50:54.475Z,32.46
2018-06-08T14:55:57.756Z,32.58
2018-06-08T15:01:01.170Z,32.36
2018-06-08T15:06:04.480Z,31.82
2018-06-08T15:11:08.574Z,31.41
2018-06-08T15:16:11.847Z,31.52
2018-06-08T15:21:15.239Z,31.44
2018-06-08T15:26:18.629Z,31.24
2018-06-08T15:31:22.682Z,31.29
2018-06-08T15:36:25.980Z,32.01
2018-06-08T15:41:30.024Z,33.29
2018-06-08T15:46:33.306Z,35.30
2018-06-08T15:51:36.605Z,38.67
2018-06-08T15:56:39.887Z,41.62
2018-06-08T16:01:43.172Z,43.60
2018-06-08T16:06:46.468Z,43.44
2018-06-08T16:11:50.516Z,44.60
2018-06-08T16:16:53.808Z,46.42
2018-06-08T16:21:57.095Z,47.19
2018-06-08T16:27:00.379Z,48.20
2018-06-08T16:32:03.664Z,48.34
2018-06-08T16:37:06.952Z,48.41
2018-06-08T16:42:10.999Z,48.04
2018-06-08T16:47:14.287Z,47.04
2018-06-08T16:52:17.572Z,45.51
2018-06-08T16:57:20.875Z,45.86
2018-06-08T17:02:24.163Z,45.95
2018-06-08T17:07:27.460Z,45.87
2018-06-08T17:12:30.740Z,45.84
2018-06-08T17:17:34.795Z,45.96
2018-06-08T17:22:38.080Z,46.02
2018-06-08T17:27:41.473Z,46.22
2018-06-08T17:32:44.762Z,46.56
2018-06-08T17:37:48.051Z,47.00
2018-06-08T17:42:51.339Z,47.47
2018-06-08T17:47:55.396Z,48.04
2018-06-08T17:52:58.691Z,48.64
2018-06-08T17:58:01.976Z,48.76
2018-06-08T18:03:05.269Z,49.49
2018-06-08T18:08:08.551Z,50.07
2018-06-08T18:13:11.841Z,51.56
2018-06-08T18:18:15.147Z,52.20
2018-06-08T18:23:18.435Z,52.59
2018-06-08T18:28:21.724Z,54.85
2018-06-08T18:33:25.007Z,55.67
2018-06-08T18:38:28.305Z,56.21
2018-06-08T18:43:31.592Z,57.07
2018-06-08T18:48:34.863Z,57.77
2018-06-08T18:53:38.162Z,58.85
2018-06-08T18:58:41.451Z,59.39
2018-06-08T19:03:44.733Z,60.67
2018-06-08T19:08:48.019Z,60.56
2018-06-08T19:13:51.309Z,60.53
2018-06-08T19:18:54.604Z,61.29
2018-06-08T19:23:57.905Z,61.11
2018-06-08T19:29:01.193Z,62.06
2018-06-08T19:34:04.471Z,61.87
2018-06-08T19:39:07.764Z,61.92
2018-06-08T19:44:11.828Z,62.55
2018-06-08T19:49:15.117Z,62.60
2018-06-08T19:54:18.413Z,61.94
2018-06-08T19:59:21.692Z,62.73
2018-06-08T20:04:24.972Z,62.23
2018-06-08T20:09:28.951Z,62.88
2018-06-08T20:14:32.254Z,62.80
2018-06-08T20:19:35.533Z,62.23
2018-06-08T20:24:38.832Z,62.73
2018-06-08T20:29:42.112Z,63.46
2018-06-08T20:34:45.388Z,64.83
2018-06-08T20:39:48.677Z,64.01
2018-06-08T20:44:52.733Z,64.31
2018-06-08T20:49:56.017Z,64.34
2018-06-08T20:55:00.078Z,63.82
2018-06-08T21:00:03.365Z,64.42
2018-06-08T21:05:07.412Z,64.89
2018-06-08T21:10:10.718Z,65.84
2018-06-08T21:15:14.007Z,65.48
2018-06-08T21:20:18.062Z,64.72
2018-06-08T21:25:21.351Z,64.28
2018-06-08T21:30:24.635Z,64.56
2018-06-08T21:35:27.928Z,64.57
2018-06-08T21:40:31.628Z,64.54
2018-06-08T21:45:35.028Z,64.79
2018-06-08T21:50:38.324Z,64.72
2018-06-08T21:55:41.615Z,64.64
2018-06-08T22:00:44.895Z,64.32
2018-06-08T22:05:48.200Z,64.01
2018-06-08T22:10:51.505Z,64.40
2018-06-08T22:15:54.801Z,64.74
2018-06-08T22:20:58.080Z,65.39
2018-06-08T22:26:01.363Z,65.77
